Time;durP1;ratioP1;P1;durP2;ratioP2;P2;SDS_P1;SDS_P2;PMS_P1;PMS_P2;Temp;Humidity;BMP_temperature;BMP_pressure;BME280_temperature;BME280_humidity;BME280_pressure;Samples;Min_cycle;Max_cycle;Signal;HPM_P1;HPM_P2
2022/06/03 00:02:13;;;;;;;2.72;1.60;;;;;;;;;;5083034;28;20037;-85
2022/06/03 00:04:41;;;;;;;2.70;1.55;;;;;;;;;;5079732;28;20451;-85
2022/06/03 00:07:11;;;;;;;2.13;1.70;;;;;;;;;;5081445;28;20024;-84
2022/06/03 00:09:57;;;;;;;3.85;1.85;;;;;;;;;;5081376;28;20040;-86
2022/06/03 00:12:38;;;;;;;3.45;1.80;;;;;;;;;;5081707;28;20055;-85
2022/06/03 00:15:09;;;;;;;2.60;1.70;;;;;;;;;;5080373;28;20086;-84
2022/06/03 00:18:03;;;;;;;3.72;1.60;;;;;;;;;;5082175;28;20036;-86
2022/06/03 00:20:50;;;;;;;4.18;1.70;;;;;;;;;;5080892;28;20028;-86
2022/06/03 00:23:52;;;;;;;3.60;1.83;;;;;;;;;;5080000;28;20039;-85
2022/06/03 00:26:18;;;;;;;2.30;1.60;;;;;;;;;;5080060;28;20044;-86
2022/06/03 00:29:11;;;;;;;2.25;1.70;;;;;;;;;;5081084;28;20566;-85
2022/06/03 00:31:59;;;;;;;2.33;1.63;;;;;;;;;;5081662;28;20036;-86
2022/06/03 00:34:46;;;;;;;2.78;1.70;;;;;;;;;;5080798;28;20128;-85
2022/06/03 00:37:36;;;;;;;2.75;1.85;;;;;;;;;;5083182;28;20048;-85
2022/06/03 00:40:30;;;;;;;2.17;1.67;;;;;;;;;;5078331;28;20047;-85
2022/06/03 00:43:14;;;;;;;2.45;1.75;;;;;;;;;;5077354;28;20060;-86
2022/06/03 00:45:55;;;;;;;3.58;1.80;;;;;;;;;;5076764;28;20119;-85
2022/06/03 00:48:23;;;;;;;2.53;1.70;;;;;;;;;;5086307;28;20036;-85
2022/06/03 00:51:14;;;;;;;2.53;1.67;;;;;;;;;;5084032;28;20052;-85
2022/06/03 00:54:08;;;;;;;2.70;1.77;;;;;;;;;;5081198;28;20036;-85
2022/06/03 00:56:48;;;;;;;3.17;1.60;;;;;;;;;;5080587;28;20390;-86
2022/06/03 00:59:36;;;;;;;3.55;1.70;;;;;;;;;;5079782;28;20119;-85
2022/06/03 01:02:19;;;;;;;3.90;1.70;;;;;;;;;;5079069;28;20045;-87
2022/06/03 01:04:51;;;;;;;;;;;;;;;;;;5081838;28;20051;-85
2022/06/03 01:07:19;;;;;;;2.72;1.70;;;;;;;;;;5081809;28;19916;-84
2022/06/03 01:10:12;;;;;;;3.08;1.80;;;;;;;;;;5079630;28;20480;-84
2022/06/03 01:13:14;;;;;;;2.43;1.63;;;;;;;;;;5081148;28;20029;-86
2022/06/03 01:16:04;;;;;;;3.75;1.60;;;;;;;;;;5079846;28;20285;-86
2022/06/03 01:18:33;;;;;;;2.28;1.42;;;;;;;;;;5079509;28;20040;-85
2022/06/03 01:21:30;;;;;;;2.17;1.60;;;;;;;;;;5079797;28;20020;-86
2022/06/03 01:24:21;;;;;;;3.10;1.70;;;;;;;;;;5079390;28;20480;-85
2022/06/03 01:27:09;;;;;;;2.75;1.52;;;;;;;;;;5078298;28;20029;-84
2022/06/03 01:30:08;;;;;;;1.70;1.45;;;;;;;;;;5059092;28;20123;-85
2022/06/03 01:33:01;;;;;;;4.25;1.75;;;;;;;;;;5058155;28;20104;-84
2022/06/03 01:35:54;;;;;;;2.05;1.70;;;;;;;;;;5074105;28;20092;-84
2022/06/03 01:38:41;;;;;;;2.30;1.60;;;;;;;;;;5075825;28;20492;-84
2022/06/03 01:41:09;;;;;;;2.50;1.50;;;;;;;;;;5074259;28;20041;-85
2022/06/03 01:43:55;;;;;;;2.22;1.73;;;;;;;;;;5083227;28;20044;-84
2022/06/03 01:46:40;;;;;;;3.47;1.65;;;;;;;;;;5085508;22;20029;-86
2022/06/03 01:49:23;;;;;;;1.80;1.52;;;;;;;;;;5076279;28;20037;-85
2022/06/03 01:51:52;;;;;;;;;;;;;;;;;;5060883;28;20040;-83
2022/06/03 01:54:56;;;;;;;1.75;1.48;;;;;;;;;;5077032;28;19965;-86
2022/06/03 01:57:30;;;;;;;1.98;1.60;;;;;;;;;;5056823;28;20064;-84
2022/06/03 02:00:17;;;;;;;2.17;1.63;;;;;;;;;;5079359;28;20105;-85
2022/06/03 02:03:14;;;;;;;2.20;1.92;;;;;;;;;;5078116;28;20045;-86
2022/06/03 02:05:49;;;;;;;3.15;1.70;;;;;;;;;;5079223;28;20029;-84
2022/06/03 02:08:49;;;;;;;3.75;1.60;;;;;;;;;;5078667;28;20512;-84
2022/06/03 02:11:27;;;;;;;3.25;1.90;;;;;;;;;;5027374;28;20404;-84
2022/06/03 02:14:01;;;;;;;2.85;1.70;;;;;;;;;;5076279;28;20043;-85
2022/06/03 02:16:56;;;;;;;3.67;2.10;;;;;;;;;;5075031;28;20032;-85
2022/06/03 02:19:46;;;;;;;3.65;1.80;;;;;;;;;;5068494;28;20073;-85
2022/06/03 02:22:37;;;;;;;6.38;2.22;;;;;;;;;;5075244;28;20102;-85
2022/06/03 02:25:31;;;;;;;2.83;2.10;;;;;;;;;;5098090;22;20040;-85
2022/06/03 02:28:09;;;;;;;4.28;1.98;;;;;;;;;;5050774;28;20041;-85
2022/06/03 02:30:52;;;;;;;3.35;2.10;;;;;;;;;;5074760;28;20041;-85
2022/06/03 02:33:24;;;;;;;2.17;1.60;;;;;;;;;;5075641;28;20036;-86
2022/06/03 02:36:11;;;;;;;5.20;1.80;;;;;;;;;;5076056;28;20043;-86
2022/06/03 02:38:43;;;;;;;3.85;1.60;;;;;;;;;;5082353;28;20048;-85
2022/06/03 02:41:49;;;;;;;2.35;1.60;;;;;;;;;;5079407;28;20056;-86
2022/06/03 02:44:36;;;;;;;2.45;1.70;;;;;;;;;;5077076;28;20070;-86
2022/06/03 02:47:39;;;;;;;6.13;1.77;;;;;;;;;;5076168;28;20045;-85
2022/06/03 02:50:35;;;;;;;1.85;1.60;;;;;;;;;;5077669;28;20043;-85
2022/06/03 02:53:28;;;;;;;1.63;1.50;;;;;;;;;;5076037;28;20048;-85
2022/06/03 02:56:35;;;;;;;2.33;1.60;;;;;;;;;;5085574;23;20083;-85
2022/06/03 02:59:21;;;;;;;1.85;1.60;;;;;;;;;;5056909;28;20056;-85
2022/06/03 03:02:27;;;;;;;3.10;1.60;;;;;;;;;;5056528;28;20040;-84
2022/06/03 03:05:18;;;;;;;3.28;1.67;;;;;;;;;;5054795;28;20049;-84
2022/06/03 03:08:45;;;;;;;2.88;1.70;;;;;;;;;;5054995;28;20041;-85
2022/06/03 03:11:29;;;;;;;2.78;1.80;;;;;;;;;;5054583;28;20029;-84
2022/06/03 03:14:05;;;;;;;3.20;1.70;;;;;;;;;;5055517;28;20043;-83
2022/06/03 03:16:39;;;;;;;1.63;1.50;;;;;;;;;;5038068;28;20033;-84
2022/06/03 03:19:17;;;;;;;2.42;1.70;;;;;;;;;;5055886;28;20115;-84
2022/06/03 03:21:58;;;;;;;1.92;1.50;;;;;;;;;;5038908;28;20055;-85
2022/06/03 03:25:01;;;;;;;4.57;1.55;;;;;;;;;;5056755;28;20448;-84
2022/06/03 03:27:54;;;;;;;4.95;1.60;;;;;;;;;;5059386;28;20087;-85
2022/06/03 03:30:41;;;;;;;1.85;1.65;;;;;;;;;;5060938;28;20082;-84
2022/06/03 03:33:18;;;;;;;2.00;1.70;;;;;;;;;;5059495;28;20095;-85
2022/06/03 03:35:58;;;;;;;1.77;1.40;;;;;;;;;;5065092;28;20041;-85
2022/06/03 03:38:39;;;;;;;3.15;1.60;;;;;;;;;;5061024;28;20159;-86
2022/06/03 03:41:22;;;;;;;2.28;1.63;;;;;;;;;;5060874;28;20032;-86
2022/06/03 03:44:06;;;;;;;2.13;1.58;;;;;;;;;;5056831;28;20135;-84
2022/06/03 03:46:56;;;;;;;3.38;1.50;;;;;;;;;;5058822;28;20473;-84
2022/06/03 03:49:31;;;;;;;2.38;1.58;;;;;;;;;;5056198;28;20052;-85
2022/06/03 03:52:15;;;;;;;1.77;1.50;;;;;;;;;;5057774;28;20041;-85
2022/06/03 03:55:14;;;;;;;3.30;1.50;;;;;;;;;;5039205;28;20036;-85
2022/06/03 03:57:46;;;;;;;3.05;1.60;;;;;;;;;;5057622;28;20120;-86
2022/06/03 04:00:30;;;;;;;2.78;1.60;;;;;;;;;;5058281;28;20119;-85
2022/06/03 04:03:16;;;;;;;2.60;1.60;;;;;;;;;;5039934;28;20489;-85
2022/06/03 04:05:56;;;;;;;2.08;1.52;;;;;;;;;;5056241;28;20072;-85
2022/06/03 04:08:49;;;;;;;2.60;1.55;;;;;;;;;;5056191;28;20405;-84
2022/06/03 04:11:53;;;;;;;4.28;1.52;;;;;;;;;;5057749;28;20094;-85
2022/06/03 04:14:53;;;;;;;4.18;1.65;;;;;;;;;;5057602;28;20482;-86
2022/06/03 04:17:52;;;;;;;1.85;1.50;;;;;;;;;;5057493;28;20033;-85
2022/06/03 04:20:29;;;;;;;4.50;1.60;;;;;;;;;;5057644;28;20036;-85
2022/06/03 04:23:13;;;;;;;4.00;1.60;;;;;;;;;;5055435;28;20071;-85
2022/06/03 04:25:51;;;;;;;5.35;1.50;;;;;;;;;;5061186;28;20063;-86
2022/06/03 04:28:48;;;;;;;1.95;1.60;;;;;;;;;;5061190;28;20057;-87
2022/06/03 04:31:54;;;;;;;4.57;1.50;;;;;;;;;;5067811;28;20036;-86
2022/06/03 04:34:44;;;;;;;2.00;1.60;;;;;;;;;;4999750;28;20124;-86
2022/06/03 04:37:12;;;;;;;3.90;1.65;;;;;;;;;;5057422;28;20052;-86
2022/06/03 04:40:12;;;;;;;1.92;1.50;;;;;;;;;;5063169;28;20424;-86
2022/06/03 04:43:15;;;;;;;4.13;1.40;;;;;;;;;;5061707;28;20036;-85
2022/06/03 04:46:02;;;;;;;3.88;1.52;;;;;;;;;;5056527;28;20069;-83
2022/06/03 04:48:36;;;;;;;4.85;1.40;;;;;;;;;;5057165;28;20033;-86
2022/06/03 04:51:08;;;;;;;2.85;1.48;;;;;;;;;;5059332;28;20052;-84
2022/06/03 04:54:08;;;;;;;2.60;1.65;;;;;;;;;;5057034;28;20390;-84
2022/06/03 04:56:52;;;;;;;1.88;1.40;;;;;;;;;;5055990;28;20111;-86
2022/06/03 04:59:41;;;;;;;3.97;1.40;;;;;;;;;;5057910;28;20033;-85
2022/06/03 05:02:31;;;;;;;2.05;1.40;;;;;;;;;;5027316;28;20071;-85
2022/06/03 05:05:16;;;;;;;1.90;1.48;;;;;;;;;;5057515;28;20044;-86
2022/06/03 05:08:04;;;;;;;2.17;1.45;;;;;;;;;;5058302;28;20167;-85
2022/06/03 05:11:00;;;;;;;2.33;1.58;;;;;;;;;;5057276;28;20044;-85
2022/06/03 05:13:48;;;;;;;2.78;1.45;;;;;;;;;;5070327;28;20028;-86
2022/06/03 05:16:32;;;;;;;1.90;1.70;;;;;;;;;;5064416;28;20033;-85
2022/06/03 05:18:57;;;;;;;3.58;1.67;;;;;;;;;;5063555;28;20052;-85
2022/06/03 05:21:56;;;;;;;2.00;1.27;;;;;;;;;;5060487;28;20033;-84
2022/06/03 05:24:59;;;;;;;2.60;1.70;;;;;;;;;;5060263;28;20040;-85
2022/06/03 05:27:27;;;;;;;2.22;1.65;;;;;;;;;;5065266;28;20048;-86
2022/06/03 05:30:17;;;;;;;2.25;1.70;;;;;;;;;;5062609;28;20031;-87
2022/06/03 05:33:16;;;;;;;2.88;1.50;;;;;;;;;;5060486;28;20029;-85
2022/06/03 05:36:01;;;;;;;4.35;1.50;;;;;;;;;;5058970;28;20041;-87
2022/06/03 05:38:45;;;;;;;3.50;1.60;;;;;;;;;;5060744;28;20025;-87
2022/06/03 05:47:11;;;;;;;1.85;1.60;;;;;;;;;;5017921;28;20045;-84
2022/06/03 05:50:00;;;;;;;1.65;1.50;;;;;;;;;;5020474;28;20093;-84
2022/06/03 05:52:35;;;;;;;4.78;1.42;;;;;;;;;;5008006;28;20053;-84
2022/06/03 05:55:35;;;;;;;2.35;1.38;;;;;;;;;;5033750;28;20045;-85
2022/06/03 05:58:25;;;;;;;4.18;1.50;;;;;;;;;;5018331;28;20034;-85
2022/06/03 06:01:26;;;;;;;2.58;1.48;;;;;;;;;;5020041;28;20038;-85
2022/06/03 06:04:14;;;;;;;2.20;1.40;;;;;;;;;;5019172;28;20034;-85
2022/06/03 06:07:10;;;;;;;3.72;1.50;;;;;;;;;;5017211;28;20128;-85
2022/06/03 06:09:43;;;;;;;3.55;1.50;;;;;;;;;;5017780;28;20068;-85
2022/06/03 06:12:09;;;;;;;;;;;;;;;;;;5018580;28;20110;-83
2022/06/03 06:15:26;;;;;;;2.65;1.50;;;;;;;;;;5017057;28;19945;-86
2022/06/03 06:18:10;;;;;;;4.45;1.40;;;;;;;;;;4977072;28;20158;-85
2022/06/03 06:20:41;;;;;;;;;;;;;;;;;;5013066;28;20049;-84
2022/06/03 06:23:22;;;;;;;2.42;1.33;;;;;;;;;;5017503;28;20267;-85
2022/06/03 06:26:11;;;;;;;2.83;1.40;;;;;;;;;;5017782;28;20046;-85
2022/06/03 06:28:41;;;;;;;2.42;1.30;;;;;;;;;;5018546;28;20125;-86
2022/06/03 06:31:44;;;;;;;3.80;1.65;;;;;;;;;;5017510;28;20089;-85
2022/06/03 06:34:15;;;;;;;1.43;1.20;;;;;;;;;;5017962;28;20156;-85
2022/06/03 06:36:44;;;;;;;2.30;1.35;;;;;;;;;;5016911;28;20034;-86
2022/06/03 06:39:35;;;;;;;3.80;1.48;;;;;;;;;;5018955;28;20044;-86
2022/06/03 06:42:13;;;;;;;2.55;1.40;;;;;;;;;;5018323;28;20038;-86
2022/06/03 06:45:08;;;;;;;1.30;1.20;;;;;;;;;;5017066;28;20105;-84
2022/06/03 06:47:44;;;;;;;1.42;1.25;;;;;;;;;;5015007;28;20299;-87
2022/06/03 06:50:19;;;;;;;1.38;1.10;;;;;;;;;;5013151;28;20038;-86
2022/06/03 06:53:09;;;;;;;4.20;1.40;;;;;;;;;;5006232;28;20037;-86
2022/06/03 06:55:37;;;;;;;3.08;1.30;;;;;;;;;;4996724;28;20045;-86
2022/06/03 06:58:08;;;;;;;1.58;1.20;;;;;;;;;;5016378;28;20387;-85
2022/06/03 07:00:40;;;;;;;1.58;1.20;;;;;;;;;;5018071;28;20490;-87
2022/06/03 07:03:22;;;;;;;2.35;1.35;;;;;;;;;;5018466;28;20406;-87
2022/06/03 07:05:57;;;;;;;6.85;1.40;;;;;;;;;;5015863;28;20483;-85
2022/06/03 07:08:28;;;;;;;2.60;1.20;;;;;;;;;;5016932;28;20033;-85
2022/06/03 07:11:03;;;;;;;1.55;1.20;;;;;;;;;;5017911;28;20042;-85
2022/06/03 07:13:39;;;;;;;1.50;1.30;;;;;;;;;;5017946;28;20038;-86
2022/06/03 07:19:47;;;;;;;9.88;1.40;;;;;;;;;;5017180;28;20049;-85
2022/06/03 07:21:58;;;;;;;2.70;1.42;;;;;;;;;;5016609;28;20048;-87
2022/06/03 07:24:46;;;;;;;2.45;1.40;;;;;;;;;;5016030;28;20089;-84
2022/06/03 07:27:22;;;;;;;3.63;1.48;;;;;;;;;;5016337;28;20038;-85
2022/06/03 07:30:22;;;;;;;4.20;1.42;;;;;;;;;;5017399;28;20050;-86
2022/06/03 07:33:14;;;;;;;2.15;1.35;;;;;;;;;;4998790;28;20041;-86
2022/06/03 07:35:45;;;;;;;1.30;1.20;;;;;;;;;;5018770;28;20038;-87
2022/06/03 07:38:17;;;;;;;2.00;1.30;;;;;;;;;;5018409;28;20033;-87
2022/06/03 07:40:57;;;;;;;1.83;1.30;;;;;;;;;;5018347;28;20045;-85
2022/06/03 07:43:46;;;;;;;2.72;1.20;;;;;;;;;;5019243;28;20045;-85
2022/06/03 07:46:17;;;;;;;4.25;1.30;;;;;;;;;;5016724;28;20034;-86
2022/06/03 07:48:42;;;;;;;2.50;1.48;;;;;;;;;;5017590;28;20033;-85
2022/06/03 07:51:39;;;;;;;1.48;1.20;;;;;;;;;;5017044;28;20032;-86
2022/06/03 07:54:26;;;;;;;1.83;1.40;;;;;;;;;;5003543;28;20052;-86
2022/06/03 07:57:10;;;;;;;4.80;1.60;;;;;;;;;;5014638;28;20037;-85
2022/06/03 07:59:38;;;;;;;5.45;1.60;;;;;;;;;;5017198;28;20038;-85
2022/06/03 08:02:04;;;;;;;2.70;1.70;;;;;;;;;;5016047;28;20080;-85
2022/06/03 08:04:35;;;;;;;4.13;1.60;;;;;;;;;;5018647;28;20030;-84
2022/06/03 08:12:37;;;;;;;2.50;1.38;;;;;;;;;;5020487;28;20437;-84
2022/06/03 08:15:19;;;;;;;1.80;1.40;;;;;;;;;;5019451;28;20499;-84
2022/06/03 08:17:47;;;;;;;2.13;1.42;;;;;;;;;;5020363;28;20065;-85
2022/06/03 08:20:20;;;;;;;2.90;1.23;;;;;;;;;;5020402;28;20493;-86
2022/06/03 08:22:46;;;;;;;2.75;1.30;;;;;;;;;;5018992;28;20029;-85
2022/06/03 08:25:19;;;;;;;2.25;1.30;;;;;;;;;;5019854;28;20038;-85
2022/06/03 08:27:45;;;;;;;4.10;1.45;;;;;;;;;;5020087;28;20049;-85
2022/06/03 08:30:17;;;;;;;3.83;1.42;;;;;;;;;;5020575;28;20429;-85
2022/06/03 08:33:10;;;;;;;2.50;1.40;;;;;;;;;;5020184;28;20080;-86
2022/06/03 08:35:38;;;;;;;;;;;;;;;;;;5017042;28;20052;-85
2022/06/03 08:38:04;;;;;;;3.05;1.55;;;;;;;;;;5018902;28;19921;-85
2022/06/03 08:40:38;;;;;;;2.78;1.50;;;;;;;;;;5018883;28;20034;-85
2022/06/03 08:43:21;;;;;;;3.50;1.40;;;;;;;;;;5020103;28;20049;-85
2022/06/03 08:46:12;;;;;;;3.00;1.50;;;;;;;;;;5017884;28;20384;-85
2022/06/03 08:48:42;;;;;;;1.50;1.20;;;;;;;;;;5020484;28;20067;-85
2022/06/03 08:51:18;;;;;;;4.90;1.80;;;;;;;;;;5019276;28;20038;-85
2022/06/03 08:53:51;;;;;;;2.10;1.50;;;;;;;;;;5021006;28;20049;-87
2022/06/03 08:56:21;;;;;;;1.63;1.42;;;;;;;;;;5019075;28;20030;-85
2022/06/03 08:58:46;;;;;;;1.60;1.30;;;;;;;;;;5015970;28;20037;-86
2022/06/03 09:01:14;;;;;;;2.65;1.40;;;;;;;;;;5020002;28;20096;-85
2022/06/03 09:03:48;;;;;;;6.57;1.70;;;;;;;;;;5008043;28;20026;-85
2022/06/03 09:06:55;;;;;;;2.92;1.80;;;;;;;;;;5012950;28;20033;-85
2022/06/03 09:09:35;;;;;;;3.22;1.83;;;;;;;;;;5000689;28;20054;-85
2022/06/03 09:12:17;;;;;;;3.63;2.00;;;;;;;;;;5000825;28;20030;-85
2022/06/03 09:14:44;;;;;;;3.13;1.70;;;;;;;;;;4999378;28;20046;-85
2022/06/03 09:17:41;;;;;;;2.83;1.80;;;;;;;;;;4999180;28;20049;-86
2022/06/03 09:20:19;;;;;;;6.28;1.85;;;;;;;;;;4995664;28;20074;-85
2022/06/03 09:22:46;;;;;;;2.78;1.90;;;;;;;;;;4997920;28;20033;-85
2022/06/03 09:25:16;;;;;;;3.67;1.77;;;;;;;;;;4997986;28;20035;-86
2022/06/03 09:27:43;;;;;;;5.45;1.73;;;;;;;;;;4999805;28;20100;-86
2022/06/03 09:30:12;;;;;;;3.83;1.70;;;;;;;;;;5000548;28;20049;-86
2022/06/03 09:32:47;;;;;;;3.78;1.60;;;;;;;;;;5001340;28;20034;-86
2022/06/03 09:35:18;;;;;;;2.28;1.63;;;;;;;;;;5001339;28;20096;-86
2022/06/03 09:37:47;;;;;;;3.25;1.80;;;;;;;;;;5001756;28;20073;-86
2022/06/03 09:40:19;;;;;;;2.20;1.80;;;;;;;;;;5001374;28;20089;-86
2022/06/03 09:42:59;;;;;;;2.35;1.70;;;;;;;;;;5001802;28;20041;-86
2022/06/03 09:45:26;;;;;;;2.55;1.70;;;;;;;;;;5000058;28;20038;-86
2022/06/03 09:47:52;;;;;;;2.83;1.80;;;;;;;;;;4999970;28;20089;-86
2022/06/03 09:50:21;;;;;;;2.08;1.77;;;;;;;;;;5001923;28;20038;-87
2022/06/03 09:52:48;;;;;;;2.65;1.75;;;;;;;;;;5000605;28;20076;-86
2022/06/03 09:55:36;;;;;;;5.05;1.70;;;;;;;;;;4999677;28;20132;-86
2022/06/03 09:58:04;;;;;;;4.80;1.73;;;;;;;;;;5001795;28;20506;-86
2022/06/03 10:00:39;;;;;;;4.50;1.60;;;;;;;;;;5001918;28;20046;-86
2022/06/03 10:03:04;;;;;;;3.88;1.80;;;;;;;;;;5002308;28;20041;-86
2022/06/03 10:05:30;;;;;;;3.55;1.80;;;;;;;;;;5000699;28;20438;-86
2022/06/03 10:08:00;;;;;;;2.72;1.80;;;;;;;;;;5001526;28;20474;-86
2022/06/03 10:13:10;;;;;;;3.70;1.75;;;;;;;;;;5002374;28;20073;-86
2022/06/03 10:15:45;;;;;;;4.05;1.70;;;;;;;;;;4984358;28;20042;-87
2022/06/03 10:18:17;;;;;;;3.22;1.73;;;;;;;;;;5003346;28;20491;-86
2022/06/03 10:20:44;;;;;;;3.83;1.52;;;;;;;;;;5003512;28;20030;-87
2022/06/03 10:23:10;;;;;;;3.15;1.80;;;;;;;;;;5001898;28;20072;-86
2022/06/03 10:25:38;;;;;;;2.60;1.70;;;;;;;;;;5000983;28;20026;-86
2022/06/03 10:28:06;;;;;;;1.90;1.70;;;;;;;;;;5001935;28;20041;-85
2022/06/03 10:30:34;;;;;;;2.53;1.70;;;;;;;;;;5002112;28;20034;-86
2022/06/03 10:33:01;;;;;;;3.17;1.52;;;;;;;;;;5001245;28;20125;-86
2022/06/03 10:35:28;;;;;;;3.78;1.60;;;;;;;;;;5001912;28;20046;-86
2022/06/03 10:38:00;;;;;;;2.38;1.80;;;;;;;;;;5001659;28;20121;-86
2022/06/03 10:40:27;;;;;;;1.85;1.52;;;;;;;;;;5000892;28;20030;-86
2022/06/03 10:42:55;;;;;;;2.40;1.55;;;;;;;;;;5001117;28;20038;-86
2022/06/03 10:45:34;;;;;;;2.05;1.50;;;;;;;;;;5001053;28;20030;-86
2022/06/03 10:48:00;;;;;;;2.28;1.50;;;;;;;;;;5002109;28;20061;-86
2022/06/03 10:50:34;;;;;;;2.35;1.63;;;;;;;;;;5001214;28;20034;-86
2022/06/03 11:01:48;;;;;;;1.98;1.45;;;;;;;;;;5003069;28;20027;-87
2022/06/03 11:04:25;;;;;;;2.42;1.50;;;;;;;;;;5002726;28;20030;-87
2022/06/03 11:06:55;;;;;;;1.95;1.40;;;;;;;;;;5002326;28;20039;-86
2022/06/03 11:09:23;;;;;;;1.83;1.40;;;;;;;;;;5002637;28;20034;-86
2022/06/03 11:11:50;;;;;;;3.63;1.60;;;;;;;;;;5001237;28;20030;-86
2022/06/03 11:14:35;;;;;;;3.78;1.60;;;;;;;;;;5001076;28;20037;-85
2022/06/03 11:17:13;;;;;;;4.32;1.80;;;;;;;;;;5001152;28;20041;-87
2022/06/03 11:19:56;;;;;;;4.70;1.60;;;;;;;;;;5000543;28;20100;-87
2022/06/03 11:22:39;;;;;;;2.20;1.60;;;;;;;;;;5000492;28;20043;-86
2022/06/03 11:25:07;;;;;;;4.63;1.63;;;;;;;;;;4997580;28;20121;-87
2022/06/03 11:27:40;;;;;;;1.80;1.40;;;;;;;;;;5000022;28;20046;-86
2022/06/03 11:30:29;;;;;;;2.40;1.58;;;;;;;;;;5002112;28;20042;-86
2022/06/03 11:32:58;;;;;;;2.22;1.35;;;;;;;;;;4992393;28;20038;-87
2022/06/03 11:35:31;;;;;;;3.58;1.60;;;;;;;;;;5001882;28;20030;-86
2022/06/03 11:38:00;;;;;;;3.97;1.60;;;;;;;;;;5004204;28;20043;-86
2022/06/03 11:40:32;;;;;;;1.73;1.35;;;;;;;;;;5000656;28;20085;-89
2022/06/03 11:43:04;;;;;;;2.55;1.30;;;;;;;;;;5000318;28;20039;-86
2022/06/03 11:45:44;;;;;;;1.70;1.38;;;;;;;;;;5001506;28;20129;-87
2022/06/03 11:48:13;;;;;;;1.98;1.40;;;;;;;;;;5002567;28;20481;-87
2022/06/03 11:50:38;;;;;;;3.70;1.50;;;;;;;;;;5000973;28;20045;-85
2022/06/03 11:53:04;;;;;;;3.10;1.63;;;;;;;;;;5002730;28;20042;-86
2022/06/03 11:55:32;;;;;;;3.15;1.58;;;;;;;;;;5010202;28;20368;-86
2022/06/03 11:58:04;;;;;;;3.63;1.60;;;;;;;;;;5001811;28;20046;-86
2022/06/03 12:00:34;;;;;;;2.25;1.45;;;;;;;;;;5012586;28;20482;-86
2022/06/03 12:03:17;;;;;;;5.63;1.70;;;;;;;;;;5001254;28;20034;-85
2022/06/03 12:05:48;;;;;;;7.50;1.50;;;;;;;;;;5003143;28;20061;-85
2022/06/03 12:08:22;;;;;;;3.00;1.50;;;;;;;;;;5009963;28;20041;-85
2022/06/03 12:11:09;;;;;;;4.32;1.50;;;;;;;;;;5009490;28;20061;-85
2022/06/03 12:13:35;;;;;;;1.88;1.38;;;;;;;;;;5012464;28;20056;-84
2022/06/03 12:16:18;;;;;;;4.25;1.50;;;;;;;;;;5007272;28;20090;-85
2022/06/03 12:19:03;;;;;;;1.75;1.45;;;;;;;;;;5027231;28;20065;-84
2022/06/03 12:21:30;;;;;;;3.13;1.50;;;;;;;;;;5008990;28;20034;-85
2022/06/03 12:23:57;;;;;;;4.05;1.52;;;;;;;;;;5024683;28;20042;-84
2022/06/03 12:26:26;;;;;;;2.05;1.65;;;;;;;;;;5011598;28;20026;-85
2022/06/03 12:29:09;;;;;;;3.17;1.70;;;;;;;;;;5010941;28;20046;-85
2022/06/03 12:31:43;;;;;;;5.85;1.70;;;;;;;;;;5009665;28;20042;-85
2022/06/03 12:34:09;;;;;;;4.43;1.60;;;;;;;;;;5011435;28;20052;-85
2022/06/03 12:36:52;;;;;;;2.60;1.60;;;;;;;;;;5011049;28;20038;-85
2022/06/03 12:39:17;;;;;;;2.35;1.50;;;;;;;;;;5018674;28;20034;-87
2022/06/03 12:41:46;;;;;;;6.10;1.70;;;;;;;;;;5002525;28;20042;-85
2022/06/03 12:44:32;;;;;;;1.70;1.60;;;;;;;;;;5002427;28;20121;-85
2022/06/03 12:47:22;;;;;;;4.43;1.60;;;;;;;;;;5002247;28;20061;-86
2022/06/03 12:49:51;;;;;;;4.15;1.67;;;;;;;;;;5002211;28;20038;-86
2022/06/03 12:52:22;;;;;;;2.55;1.77;;;;;;;;;;5002128;28;20026;-86
2022/06/03 12:55:02;;;;;;;2.47;1.70;;;;;;;;;;5001861;28;20034;-86
2022/06/03 12:57:36;;;;;;;3.38;1.63;;;;;;;;;;5003089;28;20023;-86
2022/06/03 13:00:15;;;;;;;4.55;1.73;;;;;;;;;;4997391;28;20038;-86
2022/06/03 13:03:00;;;;;;;1.95;1.67;;;;;;;;;;4998361;28;20073;-85
2022/06/03 13:05:43;;;;;;;3.15;1.80;;;;;;;;;;5000320;28;20035;-85
2022/06/03 13:08:27;;;;;;;3.03;1.73;;;;;;;;;;5003497;28;20148;-85
2022/06/03 13:11:02;;;;;;;2.42;1.65;;;;;;;;;;5004864;28;20041;-86
2022/06/03 13:13:28;;;;;;;2.55;1.70;;;;;;;;;;5003403;28;20078;-85
2022/06/03 13:15:53;;;;;;;3.50;1.83;;;;;;;;;;5003316;28;20041;-85
2022/06/03 13:18:49;;;;;;;2.83;1.83;;;;;;;;;;5016739;28;20042;-85
2022/06/03 13:21:25;;;;;;;2.92;1.90;;;;;;;;;;5016122;28;20058;-84
2022/06/03 13:23:51;;;;;;;2.55;1.70;;;;;;;;;;5022423;28;20042;-84
2022/06/03 13:26:27;;;;;;;4.07;1.92;;;;;;;;;;5007830;28;20034;-84
2022/06/03 13:29:08;;;;;;;3.67;1.90;;;;;;;;;;5006258;28;20499;-84
2022/06/03 13:31:40;;;;;;;2.60;1.80;;;;;;;;;;5007341;28;20046;-85
2022/06/03 13:34:08;;;;;;;4.28;2.20;;;;;;;;;;5005958;28;20034;-84
2022/06/03 13:36:38;;;;;;;3.85;2.20;;;;;;;;;;5007739;28;20044;-85
2022/06/03 13:39:06;;;;;;;3.17;2.17;;;;;;;;;;5005457;28;20054;-84
2022/06/03 13:44:43;;;;;;;4.28;2.33;;;;;;;;;;5005663;28;20034;-85
2022/06/03 13:47:14;;;;;;;5.38;2.38;;;;;;;;;;5005451;28;20050;-84
2022/06/03 13:49:54;;;;;;;4.47;2.53;;;;;;;;;;5006103;28;20038;-85
2022/06/03 13:52:33;;;;;;;6.65;2.17;;;;;;;;;;5006545;28;20050;-84
2022/06/03 13:55:15;;;;;;;3.25;2.30;;;;;;;;;;5007201;28;20124;-85
2022/06/03 13:57:47;;;;;;;4.37;2.30;;;;;;;;;;5007852;28;20033;-85
2022/06/03 14:00:18;;;;;;;3.42;2.40;;;;;;;;;;5006744;28;20403;-85
2022/06/03 14:02:47;;;;;;;5.05;2.55;;;;;;;;;;5023342;28;20046;-85
2022/06/03 14:05:41;;;;;;;3.70;2.70;;;;;;;;;;5021110;28;20030;-84
2022/06/03 14:08:18;;;;;;;4.53;2.90;;;;;;;;;;5004860;28;20110;-85
2022/06/03 14:11:04;;;;;;;3.60;2.63;;;;;;;;;;5006200;28;20026;-85
2022/06/03 14:13:54;;;;;;;8.98;2.80;;;;;;;;;;5006203;28;20053;-84
2022/06/03 14:16:39;;;;;;;6.60;2.80;;;;;;;;;;5006638;28;20027;-84
2022/06/03 14:19:07;;;;;;;7.82;2.55;;;;;;;;;;5005392;28;20073;-84
2022/06/03 14:21:42;;;;;;;4.05;2.70;;;;;;;;;;5006904;28;20054;-84
2022/06/03 14:24:13;;;;;;;4.63;2.50;;;;;;;;;;5006309;28;20042;-85
2022/06/03 14:26:50;;;;;;;3.13;2.50;;;;;;;;;;5006244;28;20042;-84
2022/06/03 14:29:31;;;;;;;4.47;2.47;;;;;;;;;;5007493;28;20046;-84
2022/06/03 14:32:08;;;;;;;3.40;2.38;;;;;;;;;;5006139;28;20038;-84
2022/06/03 14:35:08;;;;;;;4.03;2.67;;;;;;;;;;5021492;28;20066;-84
2022/06/03 14:37:46;;;;;;;5.60;2.60;;;;;;;;;;5005367;28;20089;-85
2022/06/03 14:40:32;;;;;;;3.20;2.40;;;;;;;;;;5003199;28;20030;-85
2022/06/03 14:43:00;;;;;;;5.10;2.65;;;;;;;;;;5006256;28;20034;-84
2022/06/03 14:45:31;;;;;;;2.85;2.20;;;;;;;;;;5003643;28;20049;-84
2022/06/03 14:48:00;;;;;;;4.50;2.38;;;;;;;;;;5004360;28;20161;-84
2022/06/03 14:50:36;;;;;;;3.50;2.40;;;;;;;;;;5004005;28;20042;-85
2022/06/03 14:53:08;;;;;;;5.60;2.28;;;;;;;;;;5005336;28;20121;-85
2022/06/03 14:55:38;;;;;;;5.15;2.50;;;;;;;;;;5020233;28;20397;-84
2022/06/03 14:58:16;;;;;;;4.32;2.33;;;;;;;;;;5004838;28;20141;-85
2022/06/03 15:01:02;;;;;;;5.47;2.47;;;;;;;;;;5003667;28;20049;-85
2022/06/03 15:03:34;;;;;;;6.22;2.20;;;;;;;;;;5004484;28;20053;-84
2022/06/03 15:06:08;;;;;;;8.35;2.28;;;;;;;;;;5003712;28;20073;-84
2022/06/03 15:08:55;;;;;;;4.05;2.20;;;;;;;;;;5004089;28;20096;-85
2022/06/03 15:12:00;;;;;;;4.78;2.50;;;;;;;;;;5004641;28;20065;-85
2022/06/03 15:14:26;;;;;;;4.57;2.20;;;;;;;;;;5002652;28;20046;-85
2022/06/03 15:17:00;;;;;;;3.13;2.38;;;;;;;;;;5006030;28;20086;-85
2022/06/03 15:20:04;;;;;;;3.92;2.20;;;;;;;;;;5009238;28;20061;-86
2022/06/03 15:22:49;;;;;;;;;;;;;;;;;;5012579;28;20093;-85
2022/06/03 15:25:24;;;;;;;3.67;2.53;;;;;;;;;;5013424;28;19914;-84
2022/06/03 15:28:17;;;;;;;4.78;2.20;;;;;;;;;;5012004;28;20506;-86
2022/06/03 15:30:49;;;;;;;3.45;2.10;;;;;;;;;;5008274;28;20046;-85
2022/06/03 15:33:22;;;;;;;4.50;2.42;;;;;;;;;;5008677;28;20368;-85
2022/06/03 15:36:00;;;;;;;4.18;2.40;;;;;;;;;;5009766;28;20057;-85
2022/06/03 15:38:32;;;;;;;3.00;2.22;;;;;;;;;;5023443;28;20027;-85
2022/06/03 15:41:01;;;;;;;4.43;2.30;;;;;;;;;;5007604;28;20038;-85
2022/06/03 15:43:39;;;;;;;5.22;2.42;;;;;;;;;;5007143;28;20045;-85
2022/06/03 15:46:05;;;;;;;3.00;2.30;;;;;;;;;;5005461;28;20062;-85
2022/06/03 15:48:31;;;;;;;4.70;2.40;;;;;;;;;;5007479;28;20480;-86
2022/06/03 15:51:03;;;;;;;7.68;2.53;;;;;;;;;;5008285;28;20081;-87
2022/06/03 15:53:33;;;;;;;5.63;2.47;;;;;;;;;;4999299;28;20036;-87
2022/06/03 15:56:11;;;;;;;4.05;2.20;;;;;;;;;;5006056;28;20398;-84
2022/06/03 15:58:43;;;;;;;3.58;2.20;;;;;;;;;;5021498;28;20037;-84
2022/06/03 16:01:18;;;;;;;5.70;2.42;;;;;;;;;;5022568;28;20030;-85
2022/06/03 16:04:14;;;;;;;2.70;2.22;;;;;;;;;;5023756;28;20489;-85
2022/06/03 16:07:05;;;;;;;5.72;2.17;;;;;;;;;;5021592;28;20072;-85
2022/06/03 16:09:54;;;;;;;3.80;2.20;;;;;;;;;;5021392;28;20089;-85
2022/06/03 16:12:38;;;;;;;3.38;2.50;;;;;;;;;;5020980;28;20038;-85
2022/06/03 16:15:33;;;;;;;4.07;2.40;;;;;;;;;;5036594;28;20063;-85
2022/06/03 16:18:20;;;;;;;4.07;2.33;;;;;;;;;;5021501;28;20057;-86
2022/06/03 16:20:58;;;;;;;4.15;2.33;;;;;;;;;;5021470;28;20056;-86
2022/06/03 16:23:49;;;;;;;2.95;2.20;;;;;;;;;;5022220;28;20041;-85
2022/06/03 16:26:38;;;;;;;5.47;2.30;;;;;;;;;;5021597;28;20034;-85
2022/06/03 16:29:41;;;;;;;5.85;2.22;;;;;;;;;;5020019;28;20093;-85
2022/06/03 16:32:10;;;;;;;4.65;2.38;;;;;;;;;;5020138;28;20041;-85